sensor_id;sensor_type;location;lat;lon;timestamp;P1;durP1;ratioP1;P2;durP2;ratioP2
68250;SDS011;55066;51.560;4.642;2023-08-12T00:01:48;12.15;;;5.75;;
68250;SDS011;55066;51.560;4.642;2023-08-12T00:04:13;12.15;;;5.57;;
68250;SDS011;55066;51.560;4.642;2023-08-12T00:06:43;11.90;;;5.83;;
68250;SDS011;55066;51.560;4.642;2023-08-12T00:09:09;13.23;;;6.32;;
68250;SDS011;55066;51.560;4.642;2023-08-12T00:11:37;11.27;;;5.63;;
68250;SDS011;55066;51.560;4.642;2023-08-12T00:14:03;13.52;;;6.45;;
68250;SDS011;55066;51.560;4.642;2023-08-12T00:16:29;13.02;;;6.32;;
68250;SDS011;55066;51.560;4.642;2023-08-12T00:18:54;13.80;;;6.13;;
68250;SDS011;55066;51.560;4.642;2023-08-12T00:21:20;12.73;;;6.00;;
68250;SDS011;55066;51.560;4.642;2023-08-12T00:23:45;13.77;;;6.68;;
68250;SDS011;55066;51.560;4.642;2023-08-12T00:26:13;11.90;;;5.93;;
68250;SDS011;55066;51.560;4.642;2023-08-12T00:28:38;17.50;;;6.60;;
68250;SDS011;55066;51.560;4.642;2023-08-12T00:31:03;13.63;;;7.00;;
68250;SDS011;55066;51.560;4.642;2023-08-12T00:33:29;13.80;;;6.90;;
68250;SDS011;55066;51.560;4.642;2023-08-12T00:35:55;13.90;;;6.45;;
68250;SDS011;55066;51.560;4.642;2023-08-12T00:38:20;12.13;;;6.73;;
68250;SDS011;55066;51.560;4.642;2023-08-12T00:40:46;12.13;;;6.65;;
68250;SDS011;55066;51.560;4.642;2023-08-12T00:43:12;11.77;;;6.70;;
68250;SDS011;55066;51.560;4.642;2023-08-12T00:45:37;12.93;;;6.93;;
68250;SDS011;55066;51.560;4.642;2023-08-12T00:48:03;16.27;;;6.90;;
68250;SDS011;55066;51.560;4.642;2023-08-12T00:50:30;12.77;;;6.90;;
68250;SDS011;55066;51.560;4.642;2023-08-12T00:52:55;15.30;;;7.20;;
68250;SDS011;55066;51.560;4.642;2023-08-12T00:55:22;14.63;;;7.38;;
68250;SDS011;55066;51.560;4.642;2023-08-12T00:57:47;15.60;;;7.18;;
68250;SDS011;55066;51.560;4.642;2023-08-12T01:00:14;15.77;;;6.70;;
68250;SDS011;55066;51.560;4.642;2023-08-12T01:02:42;16.80;;;7.80;;
68250;SDS011;55066;51.560;4.642;2023-08-12T01:05:13;14.25;;;6.65;;
68250;SDS011;55066;51.560;4.642;2023-08-12T01:07:39;13.37;;;6.83;;
68250;SDS011;55066;51.560;4.642;2023-08-12T01:10:04;17.25;;;7.97;;
68250;SDS011;55066;51.560;4.642;2023-08-12T01:12:34;12.50;;;7.60;;
68250;SDS011;55066;51.560;4.642;2023-08-12T01:15:07;16.67;;;7.63;;
68250;SDS011;55066;51.560;4.642;2023-08-12T01:17:38;17.02;;;7.80;;
68250;SDS011;55066;51.560;4.642;2023-08-12T01:20:07;18.55;;;7.68;;
68250;SDS011;55066;51.560;4.642;2023-08-12T01:22:34;15.32;;;7.68;;
68250;SDS011;55066;51.560;4.642;2023-08-12T01:25:04;13.83;;;7.63;;
68250;SDS011;55066;51.560;4.642;2023-08-12T01:27:30;16.70;;;7.80;;
68250;SDS011;55066;51.560;4.642;2023-08-12T01:29:56;15.73;;;8.15;;
68250;SDS011;55066;51.560;4.642;2023-08-12T01:32:36;13.80;;;7.73;;
68250;SDS011;55066;51.560;4.642;2023-08-12T01:35:08;14.32;;;7.25;;
68250;SDS011;55066;51.560;4.642;2023-08-12T01:37:56;13.23;;;7.10;;
68250;SDS011;55066;51.560;4.642;2023-08-12T01:40:23;14.75;;;7.38;;
68250;SDS011;55066;51.560;4.642;2023-08-12T01:42:49;17.25;;;8.02;;
68250;SDS011;55066;51.560;4.642;2023-08-12T01:45:17;12.50;;;7.43;;
68250;SDS011;55066;51.560;4.642;2023-08-12T01:47:45;15.85;;;7.50;;
68250;SDS011;55066;51.560;4.642;2023-08-12T01:50:11;14.05;;;7.63;;
68250;SDS011;55066;51.560;4.642;2023-08-12T01:52:36;19.03;;;8.10;;
68250;SDS011;55066;51.560;4.642;2023-08-12T01:55:02;15.23;;;6.93;;
68250;SDS011;55066;51.560;4.642;2023-08-12T01:57:28;17.73;;;7.55;;
68250;SDS011;55066;51.560;4.642;2023-08-12T01:59:53;15.60;;;8.57;;
68250;SDS011;55066;51.560;4.642;2023-08-12T02:02:19;18.20;;;7.50;;
68250;SDS011;55066;51.560;4.642;2023-08-12T02:04:45;14.73;;;7.40;;
68250;SDS011;55066;51.560;4.642;2023-08-12T02:07:11;15.40;;;7.75;;
68250;SDS011;55066;51.560;4.642;2023-08-12T02:09:36;17.00;;;7.50;;
68250;SDS011;55066;51.560;4.642;2023-08-12T02:12:02;14.50;;;7.30;;
68250;SDS011;55066;51.560;4.642;2023-08-12T02:14:27;13.88;;;7.20;;
68250;SDS011;55066;51.560;4.642;2023-08-12T02:16:52;18.00;;;7.67;;
68250;SDS011;55066;51.560;4.642;2023-08-12T02:19:20;17.00;;;7.07;;
68250;SDS011;55066;51.560;4.642;2023-08-12T02:21:46;14.10;;;7.20;;
68250;SDS011;55066;51.560;4.642;2023-08-12T02:24:11;15.77;;;7.57;;
68250;SDS011;55066;51.560;4.642;2023-08-12T02:26:37;14.40;;;7.35;;
68250;SDS011;55066;51.560;4.642;2023-08-12T02:29:02;20.73;;;8.43;;
68250;SDS011;55066;51.560;4.642;2023-08-12T02:31:28;17.80;;;7.38;;
68250;SDS011;55066;51.560;4.642;2023-08-12T02:33:53;16.50;;;7.77;;
68250;SDS011;55066;51.560;4.642;2023-08-12T02:36:19;16.27;;;7.73;;
68250;SDS011;55066;51.560;4.642;2023-08-12T02:38:44;17.00;;;7.95;;
68250;SDS011;55066;51.560;4.642;2023-08-12T02:41:10;15.70;;;7.63;;
68250;SDS011;55066;51.560;4.642;2023-08-12T02:43:35;18.60;;;7.43;;
68250;SDS011;55066;51.560;4.642;2023-08-12T02:46:01;21.67;;;7.20;;
68250;SDS011;55066;51.560;4.642;2023-08-12T02:48:27;16.23;;;6.97;;
68250;SDS011;55066;51.560;4.642;2023-08-12T02:50:52;15.82;;;7.13;;
68250;SDS011;55066;51.560;4.642;2023-08-12T02:53:18;16.97;;;7.23;;
68250;SDS011;55066;51.560;4.642;2023-08-12T02:55:46;16.67;;;7.90;;
68250;SDS011;55066;51.560;4.642;2023-08-12T02:58:12;14.50;;;6.82;;
68250;SDS011;55066;51.560;4.642;2023-08-12T03:00:40;16.40;;;6.80;;
68250;SDS011;55066;51.560;4.642;2023-08-12T03:03:07;12.50;;;6.70;;
68250;SDS011;55066;51.560;4.642;2023-08-12T03:05:32;13.60;;;6.47;;
68250;SDS011;55066;51.560;4.642;2023-08-12T03:07:58;14.23;;;6.70;;
68250;SDS011;55066;51.560;4.642;2023-08-12T03:10:26;14.10;;;6.97;;
68250;SDS011;55066;51.560;4.642;2023-08-12T03:12:52;14.85;;;7.18;;
68250;SDS011;55066;51.560;4.642;2023-08-12T03:15:19;15.63;;;7.28;;
68250;SDS011;55066;51.560;4.642;2023-08-12T03:17:45;15.47;;;7.77;;
68250;SDS011;55066;51.560;4.642;2023-08-12T03:20:11;18.52;;;6.95;;
68250;SDS011;55066;51.560;4.642;2023-08-12T03:22:37;13.67;;;7.13;;
68250;SDS011;55066;51.560;4.642;2023-08-12T03:25:03;19.90;;;7.27;;
68250;SDS011;55066;51.560;4.642;2023-08-12T03:27:29;15.95;;;7.32;;
68250;SDS011;55066;51.560;4.642;2023-08-12T03:29:55;18.40;;;7.22;;
68250;SDS011;55066;51.560;4.642;2023-08-12T03:32:21;14.73;;;6.50;;
68250;SDS011;55066;51.560;4.642;2023-08-12T03:34:47;14.45;;;6.28;;
68250;SDS011;55066;51.560;4.642;2023-08-12T03:37:12;14.03;;;6.70;;
68250;SDS011;55066;51.560;4.642;2023-08-12T03:39:39;15.27;;;6.65;;
68250;SDS011;55066;51.560;4.642;2023-08-12T03:42:04;15.90;;;6.77;;
68250;SDS011;55066;51.560;4.642;2023-08-12T03:44:30;14.50;;;6.50;;
68250;SDS011;55066;51.560;4.642;2023-08-12T03:46:56;16.43;;;6.00;;
68250;SDS011;55066;51.560;4.642;2023-08-12T03:49:21;14.27;;;6.28;;
68250;SDS011;55066;51.560;4.642;2023-08-12T03:51:47;12.40;;;6.43;;
68250;SDS011;55066;51.560;4.642;2023-08-12T03:54:12;13.50;;;6.13;;
68250;SDS011;55066;51.560;4.642;2023-08-12T03:56:39;12.77;;;6.23;;
68250;SDS011;55066;51.560;4.642;2023-08-12T03:59:04;12.85;;;5.85;;
68250;SDS011;55066;51.560;4.642;2023-08-12T04:01:30;16.37;;;5.80;;
68250;SDS011;55066;51.560;4.642;2023-08-12T04:03:55;11.27;;;5.17;;
68250;SDS011;55066;51.560;4.642;2023-08-12T04:06:21;12.00;;;5.80;;
68250;SDS011;55066;51.560;4.642;2023-08-12T04:08:46;11.70;;;5.57;;
68250;SDS011;55066;51.560;4.642;2023-08-12T04:11:12;12.93;;;6.00;;
68250;SDS011;55066;51.560;4.642;2023-08-12T04:13:39;12.93;;;6.47;;
68250;SDS011;55066;51.560;4.642;2023-08-12T04:16:04;13.50;;;6.13;;
68250;SDS011;55066;51.560;4.642;2023-08-12T04:18:30;13.10;;;6.30;;
68250;SDS011;55066;51.560;4.642;2023-08-12T04:20:55;13.47;;;5.73;;
68250;SDS011;55066;51.560;4.642;2023-08-12T04:23:22;12.75;;;6.40;;
68250;SDS011;55066;51.560;4.642;2023-08-12T04:25:48;13.57;;;6.27;;
68250;SDS011;55066;51.560;4.642;2023-08-12T04:28:15;12.27;;;5.93;;
68250;SDS011;55066;51.560;4.642;2023-08-12T04:30:44;16.42;;;6.35;;
68250;SDS011;55066;51.560;4.642;2023-08-12T04:33:13;13.07;;;5.63;;
68250;SDS011;55066;51.560;4.642;2023-08-12T04:35:39;14.50;;;6.13;;
68250;SDS011;55066;51.560;4.642;2023-08-12T04:38:06;12.15;;;6.10;;
68250;SDS011;55066;51.560;4.642;2023-08-12T04:40:32;11.27;;;6.35;;
68250;SDS011;55066;51.560;4.642;2023-08-12T04:42:59;15.73;;;6.27;;
68250;SDS011;55066;51.560;4.642;2023-08-12T04:45:25;12.88;;;6.68;;
68250;SDS011;55066;51.560;4.642;2023-08-12T04:47:51;13.63;;;6.55;;
68250;SDS011;55066;51.560;4.642;2023-08-12T04:50:18;13.75;;;6.20;;
68250;SDS011;55066;51.560;4.642;2023-08-12T04:52:43;16.17;;;7.10;;
68250;SDS011;55066;51.560;4.642;2023-08-12T04:55:09;14.53;;;6.43;;
68250;SDS011;55066;51.560;4.642;2023-08-12T04:57:38;13.27;;;6.50;;
68250;SDS011;55066;51.560;4.642;2023-08-12T05:00:04;13.32;;;6.97;;
68250;SDS011;55066;51.560;4.642;2023-08-12T05:02:33;13.75;;;6.68;;
68250;SDS011;55066;51.560;4.642;2023-08-12T05:04:59;14.80;;;6.27;;
68250;SDS011;55066;51.560;4.642;2023-08-12T05:07:25;15.02;;;6.45;;
68250;SDS011;55066;51.560;4.642;2023-08-12T05:09:50;13.27;;;6.80;;
68250;SDS011;55066;51.560;4.642;2023-08-12T05:12:16;12.73;;;6.97;;
68250;SDS011;55066;51.560;4.642;2023-08-12T05:14:41;15.55;;;6.85;;
68250;SDS011;55066;51.560;4.642;2023-08-12T05:17:07;16.87;;;7.23;;
68250;SDS011;55066;51.560;4.642;2023-08-12T05:19:33;19.20;;;7.32;;
68250;SDS011;55066;51.560;4.642;2023-08-12T05:21:59;14.70;;;6.93;;
68250;SDS011;55066;51.560;4.642;2023-08-12T05:24:26;14.20;;;7.53;;
68250;SDS011;55066;51.560;4.642;2023-08-12T05:26:51;15.10;;;7.43;;
68250;SDS011;55066;51.560;4.642;2023-08-12T05:29:17;12.00;;;7.50;;
68250;SDS011;55066;51.560;4.642;2023-08-12T05:31:42;15.73;;;7.55;;
68250;SDS011;55066;51.560;4.642;2023-08-12T05:34:08;14.20;;;7.10;;
68250;SDS011;55066;51.560;4.642;2023-08-12T05:36:33;15.33;;;6.57;;
68250;SDS011;55066;51.560;4.642;2023-08-12T05:38:59;20.07;;;7.73;;
68250;SDS011;55066;51.560;4.642;2023-08-12T05:41:24;16.15;;;7.00;;
68250;SDS011;55066;51.560;4.642;2023-08-12T05:43:50;12.43;;;6.37;;
68250;SDS011;55066;51.560;4.642;2023-08-12T05:46:15;11.52;;;6.32;;
68250;SDS011;55066;51.560;4.642;2023-08-12T05:48:41;10.93;;;6.20;;
68250;SDS011;55066;51.560;4.642;2023-08-12T05:51:06;13.97;;;6.00;;
68250;SDS011;55066;51.560;4.642;2023-08-12T05:53:32;10.88;;;5.18;;
68250;SDS011;55066;51.560;4.642;2023-08-12T05:55:58;14.07;;;5.60;;
68250;SDS011;55066;51.560;4.642;2023-08-12T05:58:24;9.73;;;4.95;;
68250;SDS011;55066;51.560;4.642;2023-08-12T06:00:49;11.50;;;4.87;;
68250;SDS011;55066;51.560;4.642;2023-08-12T06:03:15;13.13;;;5.28;;
68250;SDS011;55066;51.560;4.642;2023-08-12T06:05:42;14.25;;;5.03;;
68250;SDS011;55066;51.560;4.642;2023-08-12T06:08:10;7.23;;;4.33;;
68250;SDS011;55066;51.560;4.642;2023-08-12T06:10:35;7.43;;;3.95;;
68250;SDS011;55066;51.560;4.642;2023-08-12T06:13:00;7.57;;;3.93;;
68250;SDS011;55066;51.560;4.642;2023-08-12T06:15:26;6.40;;;3.40;;
68250;SDS011;55066;51.560;4.642;2023-08-12T06:17:51;5.80;;;3.27;;
68250;SDS011;55066;51.560;4.642;2023-08-12T06:20:17;7.68;;;3.40;;
68250;SDS011;55066;51.560;4.642;2023-08-12T06:22:42;5.53;;;2.93;;
68250;SDS011;55066;51.560;4.642;2023-08-12T06:25:08;4.97;;;2.90;;
68250;SDS011;55066;51.560;4.642;2023-08-12T06:27:33;5.33;;;2.80;;
68250;SDS011;55066;51.560;4.642;2023-08-12T06:29:59;4.75;;;2.97;;
68250;SDS011;55066;51.560;4.642;2023-08-12T06:32:24;5.77;;;2.77;;
68250;SDS011;55066;51.560;4.642;2023-08-12T06:34:50;5.47;;;2.20;;
68250;SDS011;55066;51.560;4.642;2023-08-12T06:37:15;4.32;;;2.60;;
68250;SDS011;55066;51.560;4.642;2023-08-12T06:39:41;4.00;;;2.20;;
68250;SDS011;55066;51.560;4.642;2023-08-12T06:42:06;4.03;;;2.20;;
68250;SDS011;55066;51.560;4.642;2023-08-12T06:44:32;3.85;;;2.20;;
68250;SDS011;55066;51.560;4.642;2023-08-12T06:46:57;3.40;;;2.10;;
68250;SDS011;55066;51.560;4.642;2023-08-12T06:49:23;3.20;;;2.07;;
68250;SDS011;55066;51.560;4.642;2023-08-12T06:51:48;5.10;;;2.40;;
68250;SDS011;55066;51.560;4.642;2023-08-12T06:54:14;3.43;;;2.13;;
68250;SDS011;55066;51.560;4.642;2023-08-12T06:56:39;4.57;;;2.20;;
68250;SDS011;55066;51.560;4.642;2023-08-12T06:59:05;3.07;;;2.10;;
68250;SDS011;55066;51.560;4.642;2023-08-12T07:01:30;3.73;;;2.50;;
68250;SDS011;55066;51.560;4.642;2023-08-12T07:03:56;4.65;;;2.90;;
68250;SDS011;55066;51.560;4.642;2023-08-12T07:06:22;4.03;;;2.70;;
68250;SDS011;55066;51.560;4.642;2023-08-12T07:08:47;6.10;;;3.25;;
68250;SDS011;55066;51.560;4.642;2023-08-12T07:11:13;5.30;;;3.10;;
68250;SDS011;55066;51.560;4.642;2023-08-12T07:13:38;5.82;;;3.15;;
68250;SDS011;55066;51.560;4.642;2023-08-12T07:16:04;5.07;;;3.33;;
68250;SDS011;55066;51.560;4.642;2023-08-12T07:18:29;5.10;;;3.27;;
68250;SDS011;55066;51.560;4.642;2023-08-12T07:20:56;5.18;;;2.75;;
68250;SDS011;55066;51.560;4.642;2023-08-12T07:23:23;4.82;;;2.90;;
68250;SDS011;55066;51.560;4.642;2023-08-12T07:25:49;5.40;;;3.10;;
68250;SDS011;55066;51.560;4.642;2023-08-12T07:28:14;5.47;;;3.17;;
68250;SDS011;55066;51.560;4.642;2023-08-12T07:30:40;5.20;;;2.53;;
68250;SDS011;55066;51.560;4.642;2023-08-12T07:33:05;4.55;;;2.00;;
68250;SDS011;55066;51.560;4.642;2023-08-12T07:35:32;4.17;;;1.10;;
68250;SDS011;55066;51.560;4.642;2023-08-12T07:37:57;2.65;;;0.85;;
68250;SDS011;55066;51.560;4.642;2023-08-12T07:40:23;1.83;;;0.60;;
68250;SDS011;55066;51.560;4.642;2023-08-12T07:42:48;2.43;;;0.70;;
68250;SDS011;55066;51.560;4.642;2023-08-12T07:45:14;4.15;;;1.00;;
68250;SDS011;55066;51.560;4.642;2023-08-12T07:47:39;3.30;;;1.20;;
68250;SDS011;55066;51.560;4.642;2023-08-12T07:50:05;3.70;;;1.47;;
68250;SDS011;55066;51.560;4.642;2023-08-12T07:52:31;4.65;;;0.90;;
68250;SDS011;55066;51.560;4.642;2023-08-12T07:54:56;2.60;;;0.73;;
68250;SDS011;55066;51.560;4.642;2023-08-12T07:57:22;3.58;;;0.90;;
68250;SDS011;55066;51.560;4.642;2023-08-12T07:59:52;3.57;;;0.80;;
68250;SDS011;55066;51.560;4.642;2023-08-12T08:02:17;4.10;;;0.90;;
68250;SDS011;55066;51.560;4.642;2023-08-12T08:04:43;2.92;;;0.90;;
68250;SDS011;55066;51.560;4.642;2023-08-12T08:07:08;6.07;;;1.30;;
68250;SDS011;55066;51.560;4.642;2023-08-12T08:09:34;10.17;;;2.70;;
68250;SDS011;55066;51.560;4.642;2023-08-12T08:11:59;12.10;;;3.58;;
68250;SDS011;55066;51.560;4.642;2023-08-12T08:14:26;13.33;;;4.73;;
68250;SDS011;55066;51.560;4.642;2023-08-12T08:16:52;13.70;;;4.35;;
68250;SDS011;55066;51.560;4.642;2023-08-12T08:19:18;12.20;;;3.58;;
68250;SDS011;55066;51.560;4.642;2023-08-12T08:21:44;10.57;;;3.17;;
68250;SDS011;55066;51.560;4.642;2023-08-12T08:24:10;8.85;;;2.55;;
68250;SDS011;55066;51.560;4.642;2023-08-12T08:26:38;15.25;;;4.45;;
68250;SDS011;55066;51.560;4.642;2023-08-12T08:29:05;12.00;;;3.90;;
68250;SDS011;55066;51.560;4.642;2023-08-12T08:31:31;9.10;;;2.90;;
68250;SDS011;55066;51.560;4.642;2023-08-12T08:33:56;9.27;;;1.90;;
68250;SDS011;55066;51.560;4.642;2023-08-12T08:36:22;6.93;;;1.83;;
68250;SDS011;55066;51.560;4.642;2023-08-12T08:38:48;5.47;;;1.37;;
68250;SDS011;55066;51.560;4.642;2023-08-12T08:41:14;6.22;;;1.05;;
68250;SDS011;55066;51.560;4.642;2023-08-12T08:43:41;3.72;;;1.48;;
68250;SDS011;55066;51.560;4.642;2023-08-12T08:46:10;7.07;;;1.80;;
68250;SDS011;55066;51.560;4.642;2023-08-12T08:48:40;6.27;;;1.33;;
68250;SDS011;55066;51.560;4.642;2023-08-12T08:51:07;6.35;;;1.40;;
68250;SDS011;55066;51.560;4.642;2023-08-12T08:53:36;6.43;;;1.30;;
68250;SDS011;55066;51.560;4.642;2023-08-12T08:56:03;3.72;;;1.20;;
68250;SDS011;55066;51.560;4.642;2023-08-12T08:58:33;4.68;;;1.33;;
68250;SDS011;55066;51.560;4.642;2023-08-12T09:00:59;6.57;;;1.33;;
68250;SDS011;55066;51.560;4.642;2023-08-12T09:03:25;5.72;;;1.42;;
68250;SDS011;55066;51.560;4.642;2023-08-12T09:05:52;5.07;;;1.45;;
68250;SDS011;55066;51.560;4.642;2023-08-12T09:08:20;5.95;;;1.80;;
68250;SDS011;55066;51.560;4.642;2023-08-12T09:10:47;6.00;;;1.10;;
68250;SDS011;55066;51.560;4.642;2023-08-12T09:13:13;6.10;;;1.08;;
68250;SDS011;55066;51.560;4.642;2023-08-12T09:15:40;4.70;;;1.20;;
68250;SDS011;55066;51.560;4.642;2023-08-12T09:18:06;4.80;;;1.13;;
68250;SDS011;55066;51.560;4.642;2023-08-12T09:20:32;7.57;;;1.73;;
68250;SDS011;55066;51.560;4.642;2023-08-12T09:22:58;9.85;;;3.17;;
68250;SDS011;55066;51.560;4.642;2023-08-12T09:25:25;9.65;;;2.83;;
68250;SDS011;55066;51.560;4.642;2023-08-12T09:27:53;4.97;;;1.63;;
68250;SDS011;55066;51.560;4.642;2023-08-12T09:30:20;7.03;;;1.60;;
68250;SDS011;55066;51.560;4.642;2023-08-12T09:33:01;6.47;;;1.30;;
68250;SDS011;55066;51.560;4.642;2023-08-12T09:35:47;6.93;;;1.37;;
68250;SDS011;55066;51.560;4.642;2023-08-12T09:38:12;11.40;;;1.10;;
68250;SDS011;55066;51.560;4.642;2023-08-12T09:40:38;11.55;;;1.45;;
68250;SDS011;55066;51.560;4.642;2023-08-12T09:43:05;7.43;;;1.88;;
68250;SDS011;55066;51.560;4.642;2023-08-12T09:45:31;6.00;;;1.30;;
68250;SDS011;55066;51.560;4.642;2023-08-12T09:47:57;6.15;;;1.25;;
68250;SDS011;55066;51.560;4.642;2023-08-12T09:50:24;4.13;;;1.10;;
68250;SDS011;55066;51.560;4.642;2023-08-12T09:52:51;5.78;;;1.27;;
68250;SDS011;55066;51.560;4.642;2023-08-12T09:55:17;8.32;;;1.35;;
68250;SDS011;55066;51.560;4.642;2023-08-12T09:57:44;7.30;;;1.60;;
68250;SDS011;55066;51.560;4.642;2023-08-12T10:00:14;4.70;;;1.23;;
68250;SDS011;55066;51.560;4.642;2023-08-12T10:02:49;7.13;;;1.48;;
68250;SDS011;55066;51.560;4.642;2023-08-12T10:05:23;7.25;;;1.33;;
68250;SDS011;55066;51.560;4.642;2023-08-12T10:07:52;7.60;;;1.50;;
68250;SDS011;55066;51.560;4.642;2023-08-12T10:10:18;3.33;;;1.20;;
68250;SDS011;55066;51.560;4.642;2023-08-12T10:12:45;4.53;;;1.30;;
68250;SDS011;55066;51.560;4.642;2023-08-12T10:15:11;6.30;;;1.42;;
68250;SDS011;55066;51.560;4.642;2023-08-12T10:17:38;9.17;;;1.90;;
68250;SDS011;55066;51.560;4.642;2023-08-12T10:20:05;6.87;;;1.30;;
68250;SDS011;55066;51.560;4.642;2023-08-12T10:22:33;6.72;;;1.70;;
68250;SDS011;55066;51.560;4.642;2023-08-12T10:25:01;5.43;;;1.30;;
68250;SDS011;55066;51.560;4.642;2023-08-12T10:27:28;4.70;;;1.60;;
68250;SDS011;55066;51.560;4.642;2023-08-12T10:29:57;3.83;;;0.90;;
68250;SDS011;55066;51.560;4.642;2023-08-12T10:32:23;5.80;;;1.45;;
68250;SDS011;55066;51.560;4.642;2023-08-12T10:34:56;7.57;;;1.67;;
68250;SDS011;55066;51.560;4.642;2023-08-12T10:37:22;6.63;;;1.58;;
68250;SDS011;55066;51.560;4.642;2023-08-12T10:39:49;6.57;;;1.50;;
68250;SDS011;55066;51.560;4.642;2023-08-12T10:42:31;6.50;;;1.60;;
68250;SDS011;55066;51.560;4.642;2023-08-12T10:45:10;11.38;;;2.63;;
68250;SDS011;55066;51.560;4.642;2023-08-12T10:47:40;6.68;;;1.70;;
68250;SDS011;55066;51.560;4.642;2023-08-12T10:50:19;5.47;;;1.77;;
68250;SDS011;55066;51.560;4.642;2023-08-12T10:52:46;5.55;;;2.20;;
68250;SDS011;55066;51.560;4.642;2023-08-12T10:57:53;13.30;;;4.60;;
68250;SDS011;55066;51.560;4.642;2023-08-12T11:00:20;6.45;;;2.35;;
68250;SDS011;55066;51.560;4.642;2023-08-12T11:02:49;5.83;;;1.60;;
68250;SDS011;55066;51.560;4.642;2023-08-12T11:05:16;7.03;;;1.75;;
68250;SDS011;55066;51.560;4.642;2023-08-12T11:10:27;6.68;;;1.52;;
68250;SDS011;55066;51.560;4.642;2023-08-12T11:12:56;8.73;;;2.00;;
68250;SDS011;55066;51.560;4.642;2023-08-12T11:15:29;7.20;;;1.83;;
68250;SDS011;55066;51.560;4.642;2023-08-12T11:17:56;8.60;;;1.73;;
68250;SDS011;55066;51.560;4.642;2023-08-12T11:20:22;7.65;;;1.85;;
68250;SDS011;55066;51.560;4.642;2023-08-12T11:22:47;5.77;;;1.93;;
68250;SDS011;55066;51.560;4.642;2023-08-12T11:25:14;5.70;;;1.40;;
68250;SDS011;55066;51.560;4.642;2023-08-12T11:27:47;6.60;;;1.47;;
68250;SDS011;55066;51.560;4.642;2023-08-12T11:30:13;4.68;;;1.30;;
68250;SDS011;55066;51.560;4.642;2023-08-12T11:32:44;4.82;;;1.27;;
68250;SDS011;55066;51.560;4.642;2023-08-12T11:35:11;6.60;;;1.50;;
68250;SDS011;55066;51.560;4.642;2023-08-12T11:37:38;7.05;;;1.75;;
68250;SDS011;55066;51.560;4.642;2023-08-12T11:40:05;3.72;;;1.40;;
68250;SDS011;55066;51.560;4.642;2023-08-12T11:42:34;7.82;;;1.90;;
68250;SDS011;55066;51.560;4.642;2023-08-12T11:45:00;6.10;;;1.60;;
68250;SDS011;55066;51.560;4.642;2023-08-12T11:47:25;8.13;;;1.63;;
68250;SDS011;55066;51.560;4.642;2023-08-12T11:49:52;7.83;;;1.43;;
68250;SDS011;55066;51.560;4.642;2023-08-12T11:52:19;5.43;;;1.60;;
68250;SDS011;55066;51.560;4.642;2023-08-12T11:54:44;8.60;;;1.63;;
68250;SDS011;55066;51.560;4.642;2023-08-12T11:57:10;5.47;;;1.38;;
68250;SDS011;55066;51.560;4.642;2023-08-12T11:59:36;5.90;;;1.30;;
68250;SDS011;55066;51.560;4.642;2023-08-12T12:02:02;4.35;;;1.38;;
68250;SDS011;55066;51.560;4.642;2023-08-12T12:04:29;7.18;;;1.70;;
68250;SDS011;55066;51.560;4.642;2023-08-12T12:06:56;6.28;;;1.42;;
68250;SDS011;55066;51.560;4.642;2023-08-12T12:09:22;5.43;;;1.20;;
68250;SDS011;55066;51.560;4.642;2023-08-12T12:11:51;6.45;;;1.45;;
68250;SDS011;55066;51.560;4.642;2023-08-12T12:14:17;6.68;;;1.60;;
68250;SDS011;55066;51.560;4.642;2023-08-12T12:16:47;6.83;;;1.60;;
68250;SDS011;55066;51.560;4.642;2023-08-12T12:21:42;9.82;;;2.05;;
68250;SDS011;55066;51.560;4.642;2023-08-12T12:24:09;6.57;;;1.52;;
68250;SDS011;55066;51.560;4.642;2023-08-12T12:26:35;8.40;;;1.40;;
68250;SDS011;55066;51.560;4.642;2023-08-12T12:29:02;5.97;;;1.50;;
68250;SDS011;55066;51.560;4.642;2023-08-12T12:31:28;6.03;;;1.52;;
68250;SDS011;55066;51.560;4.642;2023-08-12T12:33:54;5.77;;;1.60;;
68250;SDS011;55066;51.560;4.642;2023-08-12T12:36:19;6.13;;;1.80;;
68250;SDS011;55066;51.560;4.642;2023-08-12T12:38:45;5.53;;;1.40;;
68250;SDS011;55066;51.560;4.642;2023-08-12T12:41:10;6.23;;;1.60;;
68250;SDS011;55066;51.560;4.642;2023-08-12T12:43:36;6.20;;;1.67;;
68250;SDS011;55066;51.560;4.642;2023-08-12T12:46:01;7.03;;;1.98;;
68250;SDS011;55066;51.560;4.642;2023-08-12T12:48:26;8.03;;;1.93;;
68250;SDS011;55066;51.560;4.642;2023-08-12T12:50:52;6.90;;;1.90;;
68250;SDS011;55066;51.560;4.642;2023-08-12T12:53:17;10.07;;;2.00;;
68250;SDS011;55066;51.560;4.642;2023-08-12T12:55:43;5.13;;;2.30;;
68250;SDS011;55066;51.560;4.642;2023-08-12T12:58:09;11.35;;;2.70;;
68250;SDS011;55066;51.560;4.642;2023-08-12T13:00:35;4.85;;;2.50;;
68250;SDS011;55066;51.560;4.642;2023-08-12T13:03:00;7.27;;;2.77;;
68250;SDS011;55066;51.560;4.642;2023-08-12T13:05:25;8.23;;;3.40;;
68250;SDS011;55066;51.560;4.642;2023-08-12T13:07:51;8.10;;;2.90;;
68250;SDS011;55066;51.560;4.642;2023-08-12T13:10:16;8.82;;;3.50;;
68250;SDS011;55066;51.560;4.642;2023-08-12T13:12:42;6.97;;;2.87;;
68250;SDS011;55066;51.560;4.642;2023-08-12T13:15:07;6.63;;;2.83;;
68250;SDS011;55066;51.560;4.642;2023-08-12T13:17:33;10.18;;;2.85;;
68250;SDS011;55066;51.560;4.642;2023-08-12T13:19:58;5.97;;;2.57;;
68250;SDS011;55066;51.560;4.642;2023-08-12T13:22:24;6.77;;;2.17;;
68250;SDS011;55066;51.560;4.642;2023-08-12T13:24:49;9.33;;;3.13;;
68250;SDS011;55066;51.560;4.642;2023-08-12T13:27:15;7.57;;;2.65;;
68250;SDS011;55066;51.560;4.642;2023-08-12T13:29:42;6.30;;;2.80;;
68250;SDS011;55066;51.560;4.642;2023-08-12T13:32:08;7.82;;;3.33;;
68250;SDS011;55066;51.560;4.642;2023-08-12T13:34:33;6.95;;;2.67;;
68250;SDS011;55066;51.560;4.642;2023-08-12T13:37:00;7.00;;;2.40;;
68250;SDS011;55066;51.560;4.642;2023-08-12T13:39:25;5.90;;;2.22;;
68250;SDS011;55066;51.560;4.642;2023-08-12T13:41:51;8.43;;;2.97;;
68250;SDS011;55066;51.560;4.642;2023-08-12T13:44:16;7.70;;;2.70;;
68250;SDS011;55066;51.560;4.642;2023-08-12T13:46:42;7.13;;;2.93;;
68250;SDS011;55066;51.560;4.642;2023-08-12T13:49:07;7.28;;;3.00;;
68250;SDS011;55066;51.560;4.642;2023-08-12T13:51:33;8.80;;;2.80;;
68250;SDS011;55066;51.560;4.642;2023-08-12T13:53:58;8.70;;;2.60;;
68250;SDS011;55066;51.560;4.642;2023-08-12T13:56:23;8.37;;;2.80;;
68250;SDS011;55066;51.560;4.642;2023-08-12T13:58:49;6.75;;;2.50;;
68250;SDS011;55066;51.560;4.642;2023-08-12T14:01:14;5.53;;;1.83;;
68250;SDS011;55066;51.560;4.642;2023-08-12T14:03:40;7.73;;;2.60;;
68250;SDS011;55066;51.560;4.642;2023-08-12T14:06:05;7.10;;;1.92;;
68250;SDS011;55066;51.560;4.642;2023-08-12T14:08:31;6.37;;;2.00;;
68250;SDS011;55066;51.560;4.642;2023-08-12T14:10:56;6.87;;;1.73;;
68250;SDS011;55066;51.560;4.642;2023-08-12T14:13:22;9.30;;;2.00;;
68250;SDS011;55066;51.560;4.642;2023-08-12T14:15:47;5.50;;;1.70;;
68250;SDS011;55066;51.560;4.642;2023-08-12T14:18:12;6.97;;;1.75;;
68250;SDS011;55066;51.560;4.642;2023-08-12T14:20:38;9.93;;;3.00;;
68250;SDS011;55066;51.560;4.642;2023-08-12T14:23:03;8.00;;;2.70;;
68250;SDS011;55066;51.560;4.642;2023-08-12T14:25:29;9.55;;;2.75;;
68250;SDS011;55066;51.560;4.642;2023-08-12T14:27:55;10.77;;;2.83;;
68250;SDS011;55066;51.560;4.642;2023-08-12T14:30:23;9.83;;;2.30;;
68250;SDS011;55066;51.560;4.642;2023-08-12T14:32:50;8.32;;;2.10;;
68250;SDS011;55066;51.560;4.642;2023-08-12T14:35:16;8.80;;;1.90;;
68250;SDS011;55066;51.560;4.642;2023-08-12T14:37:41;8.20;;;2.00;;
68250;SDS011;55066;51.560;4.642;2023-08-12T14:40:07;7.43;;;1.50;;
68250;SDS011;55066;51.560;4.642;2023-08-12T14:42:33;5.10;;;1.90;;
68250;SDS011;55066;51.560;4.642;2023-08-12T14:45:00;11.10;;;3.73;;